createdAt,value
2023-12-17T07:11:54.626Z,24.92
2023-12-17T07:14:21.288Z,42.08
2023-12-17T07:16:48.285Z,38.38
2023-12-17T07:19:15.080Z,42.47
2023-12-17T07:21:41.793Z,45.65
2023-12-17T07:24:08.535Z,37.95
2023-12-17T07:26:35.538Z,48.42
2023-12-17T07:29:02.189Z,45.22
2023-12-17T07:31:28.964Z,37.42
2023-12-17T07:33:56.165Z,62.20
2023-12-17T07:36:22.962Z,73.25
2023-12-17T07:38:49.633Z,105.57
2023-12-17T07:41:16.270Z,62.65
2023-12-17T07:43:43.036Z,76.40
2023-12-17T07:46:09.827Z,83.43
2023-12-17T07:48:36.593Z,100.82
2023-12-17T07:51:03.591Z,73.35
2023-12-17T07:53:30.344Z,58.47
2023-12-17T07:55:58.907Z,67.65
2023-12-17T07:58:26.298Z,71.72
2023-12-17T08:00:53.613Z,60.63
2023-12-17T08:03:23.988Z,62.78
2023-12-17T08:05:51.375Z,67.50
2023-12-17T08:08:18.051Z,62.15
2023-12-17T08:10:44.665Z,46.42
2023-12-17T08:13:11.475Z,79.15
2023-12-17T08:15:38.095Z,77.00
2023-12-17T08:18:04.896Z,71.35
2023-12-17T08:20:31.628Z,62.97
2023-12-17T08:22:58.934Z,55.25
2023-12-17T08:25:25.605Z,72.38
2023-12-17T08:27:52.248Z,84.35
2023-12-17T08:30:19.262Z,78.75
2023-12-17T08:32:47.072Z,76.20
2023-12-17T08:35:13.912Z,80.15
2023-12-17T08:37:40.836Z,54.67
2023-12-17T08:40:07.786Z,70.07
2023-12-17T08:42:34.643Z,64.47
2023-12-17T08:45:01.460Z,66.50
2023-12-17T08:47:28.096Z,58.30
2023-12-17T08:49:54.877Z,55.75
2023-12-17T08:52:21.494Z,49.47
2023-12-17T08:54:48.181Z,53.10
2023-12-17T08:57:14.957Z,49.58
2023-12-17T08:59:44.202Z,55.25
2023-12-17T09:02:10.858Z,42.17
2023-12-17T09:04:37.591Z,37.13
2023-12-17T09:07:04.841Z,40.85
2023-12-17T09:09:31.574Z,35.80
2023-12-17T09:11:58.736Z,42.83
2023-12-17T09:14:25.567Z,33.22
2023-12-17T09:16:52.187Z,40.20
2023-12-17T09:19:19.159Z,32.97
2023-12-17T09:21:45.856Z,31.53
2023-12-17T09:24:12.615Z,23.05
2023-12-17T09:26:39.392Z,28.73
2023-12-17T09:29:05.975Z,33.08
2023-12-17T09:31:32.663Z,36.72
2023-12-17T09:33:59.815Z,29.47
2023-12-17T09:36:28.309Z,34.35
2023-12-17T09:38:55.040Z,35.13
2023-12-17T09:41:21.680Z,39.08
2023-12-17T09:43:48.315Z,64.38
2023-12-17T09:46:15.002Z,58.47
2023-12-17T09:48:43.678Z,43.47
2023-12-17T09:51:13.626Z,59.80
2023-12-17T09:53:40.422Z,56.15
2023-12-17T09:56:07.710Z,46.92
2023-12-17T09:58:34.335Z,49.70
2023-12-17T10:01:01.184Z,41.53
2023-12-17T10:03:28.043Z,35.03
2023-12-17T10:05:55.314Z,37.13
2023-12-17T10:08:22.348Z,36.70
2023-12-17T10:10:49.020Z,25.67
2023-12-17T10:13:20.159Z,41.65
2023-12-17T10:15:50.763Z,46.28
2023-12-17T10:18:18.149Z,38.60
2023-12-17T10:20:45.664Z,32.60
2023-12-17T10:23:13.825Z,32.40
2023-12-17T10:25:40.954Z,51.17
2023-12-17T10:28:10.116Z,32.40
2023-12-17T10:30:37.345Z,30.98
2023-12-17T10:33:04.961Z,25.42
2023-12-17T10:35:32.228Z,33.35
2023-12-17T10:37:59.784Z,38.22
2023-12-17T10:40:27.777Z,36.58
2023-12-17T10:45:22.377Z,29.13
2023-12-17T10:47:51.413Z,31.90
2023-12-17T10:50:18.872Z,39.15
2023-12-17T10:52:46.806Z,22.50
2023-12-17T10:55:13.483Z,29.30
2023-12-17T10:57:40.945Z,34.17
2023-12-17T11:00:11.337Z,36.88
2023-12-17T11:02:38.705Z,20.73
2023-12-17T11:05:05.672Z,16.00
2023-12-17T11:07:38.110Z,36.78
2023-12-17T11:10:11.709Z,24.83
2023-12-17T11:12:39.703Z,22.30
2023-12-17T11:15:06.819Z,17.98
2023-12-17T11:17:33.689Z,22.70
2023-12-17T11:20:01.845Z,27.93
2023-12-17T11:22:29.322Z,38.53
2023-12-17T11:25:00.006Z,33.50
2023-12-17T11:27:27.042Z,23.65
2023-12-17T11:29:54.587Z,29.53
2023-12-17T11:32:21.938Z,25.52
2023-12-17T11:34:52.181Z,22.30
2023-12-17T11:37:20.292Z,24.98
2023-12-17T11:42:15.050Z,22.95
2023-12-17T11:44:48.739Z,53.60
2023-12-17T11:47:15.989Z,25.13
2023-12-17T11:49:46.419Z,22.23
2023-12-17T11:52:17.268Z,19.77
2023-12-17T11:54:58.036Z,25.65
2023-12-17T11:57:25.176Z,22.25
2023-12-17T11:59:52.135Z,26.23
2023-12-17T12:02:20.020Z,23.42
2023-12-17T12:04:47.163Z,31.10
2023-12-17T12:07:18.532Z,30.47
2023-12-17T12:09:51.600Z,26.85
2023-12-17T12:12:22.340Z,37.28
2023-12-17T12:14:50.257Z,27.17
2023-12-17T12:17:35.752Z,29.75
2023-12-17T12:20:02.616Z,24.95
2023-12-17T12:22:29.700Z,28.05
2023-12-17T12:24:57.157Z,16.15
2023-12-17T12:27:24.255Z,50.45
2023-12-17T12:29:52.780Z,60.20
2023-12-17T12:32:32.429Z,36.53
2023-12-17T12:34:59.507Z,30.02
2023-12-17T12:37:36.170Z,20.77
2023-12-17T12:40:05.097Z,37.63
2023-12-17T12:42:33.271Z,42.40
2023-12-17T12:45:00.256Z,34.85
2023-12-17T12:47:27.248Z,32.13
2023-12-17T12:49:54.022Z,40.58
2023-12-17T12:52:24.439Z,28.00
2023-12-17T12:54:51.712Z,51.30
2023-12-17T12:57:19.119Z,49.13
2023-12-17T12:59:45.870Z,39.28
2023-12-17T13:02:12.894Z,36.88
2023-12-17T13:04:39.928Z,39.05
2023-12-17T13:07:06.696Z,36.80
2023-12-17T13:09:34.347Z,45.28
2023-12-17T13:12:01.199Z,22.88
2023-12-17T13:14:27.985Z,50.50
2023-12-17T13:16:54.612Z,42.65
2023-12-17T13:19:24.054Z,36.45
2023-12-17T13:21:51.405Z,20.58
2023-12-17T13:24:20.240Z,23.55
2023-12-17T13:26:46.916Z,27.25
2023-12-17T13:29:13.764Z,26.75
2023-12-17T13:31:40.523Z,30.13
2023-12-17T13:34:07.417Z,42.38
2023-12-17T13:36:34.233Z,31.63
2023-12-17T13:39:01.138Z,30.40
2023-12-17T13:41:28.274Z,16.83
2023-12-17T13:43:55.047Z,19.40
2023-12-17T13:46:21.678Z,11.63
2023-12-17T13:48:48.550Z,17.60
2023-12-17T13:51:15.279Z,13.27
2023-12-17T13:53:41.885Z,16.85
2023-12-17T13:56:08.647Z,17.02
2023-12-17T13:58:35.463Z,13.90
2023-12-17T14:01:02.393Z,13.20
2023-12-17T14:03:29.357Z,41.33
2023-12-17T14:05:56.274Z,35.20
2023-12-17T14:08:23.263Z,25.23
2023-12-17T14:10:49.949Z,34.50
2023-12-17T14:13:18.420Z,34.85
2023-12-17T14:15:45.124Z,23.05
2023-12-17T14:18:11.886Z,22.33
2023-12-17T14:20:38.728Z,23.17
2023-12-17T14:23:05.441Z,21.98
2023-12-17T14:25:39.526Z,21.33
2023-12-17T14:30:09.654Z,26.50
2023-12-17T14:35:03.085Z,30.25
2023-12-17T14:37:33.122Z,20.02
2023-12-17T14:39:59.781Z,25.42
2023-12-17T14:42:27.538Z,27.42
2023-12-17T14:44:54.322Z,32.13
2023-12-17T14:47:20.996Z,37.40
2023-12-17T14:49:47.776Z,35.70
2023-12-17T14:52:14.546Z,52.33
2023-12-17T14:54:42.459Z,61.28
2023-12-17T14:57:09.167Z,66.40
2023-12-17T14:59:38.018Z,64.93
2023-12-17T15:02:05.135Z,51.40
2023-12-17T15:04:32.710Z,54.63
2023-12-17T15:06:59.657Z,43.75
2023-12-17T15:09:28.130Z,87.15
2023-12-17T15:11:55.105Z,73.85
2023-12-17T15:14:22.028Z,75.88
2023-12-17T15:16:49.777Z,76.78
2023-12-17T15:19:18.176Z,88.70
2023-12-17T15:21:48.681Z,93.18
2023-12-17T15:24:15.466Z,110.32
2023-12-17T15:26:42.216Z,110.88
2023-12-17T15:29:08.965Z,107.75
2023-12-17T15:31:35.703Z,82.00
2023-12-17T15:34:02.834Z,70.05
2023-12-17T15:36:29.913Z,77.38
2023-12-17T15:38:57.501Z,92.95
2023-12-17T15:41:24.389Z,85.30
2023-12-17T15:43:51.401Z,78.75
2023-12-17T15:46:21.807Z,98.25
2023-12-17T15:48:49.405Z,115.85
2023-12-17T15:51:19.833Z,94.95
2023-12-17T15:53:47.088Z,87.68
2023-12-17T15:56:15.620Z,96.80
2023-12-17T15:58:42.385Z,82.00
2023-12-17T16:01:09.096Z,86.00
2023-12-17T16:03:35.766Z,82.70
2023-12-17T16:06:02.756Z,99.95
2023-12-17T16:08:29.474Z,90.05
2023-12-17T16:10:56.284Z,115.63
2023-12-17T16:13:23.964Z,106.38
2023-12-17T16:15:50.575Z,103.20
2023-12-17T16:18:18.502Z,103.22
2023-12-17T16:23:12.820Z,120.32
2023-12-17T16:25:39.521Z,128.23
2023-12-17T16:28:06.517Z,132.15
2023-12-17T16:30:33.345Z,219.10
2023-12-17T16:33:00.241Z,182.05
2023-12-17T16:35:26.953Z,187.05
2023-12-17T16:37:53.590Z,207.90
2023-12-17T16:40:22.417Z,195.15
2023-12-17T16:42:49.536Z,140.63
2023-12-17T16:45:16.455Z,99.60
2023-12-17T16:47:43.185Z,110.03
2023-12-17T16:50:10.487Z,93.80
2023-12-17T16:52:37.221Z,98.47
2023-12-17T16:55:03.954Z,111.50
2023-12-17T16:57:30.996Z,122.90
2023-12-17T16:59:57.836Z,96.07
2023-12-17T17:02:24.694Z,139.18
2023-12-17T17:04:51.560Z,113.78
2023-12-17T17:07:19.476Z,155.13
2023-12-17T17:09:46.995Z,111.75
2023-12-17T17:12:14.160Z,83.60
2023-12-17T17:14:41.066Z,72.23
2023-12-17T17:17:08.719Z,67.90
2023-12-17T17:19:35.767Z,69.47
2023-12-17T17:22:02.762Z,63.53
2023-12-17T17:24:29.784Z,84.63
2023-12-17T17:26:57.595Z,96.80
2023-12-17T17:29:24.286Z,135.88
2023-12-17T17:31:52.376Z,154.05
2023-12-17T17:34:19.552Z,167.32
2023-12-17T17:36:46.392Z,156.52
2023-12-17T17:39:13.130Z,158.05
2023-12-17T17:41:40.062Z,116.63
2023-12-17T17:44:06.718Z,135.15
2023-12-17T17:46:33.439Z,132.93
2023-12-17T17:49:00.239Z,183.45
2023-12-17T17:51:27.821Z,183.57
2023-12-17T17:53:54.651Z,163.25
2023-12-17T17:56:21.638Z,131.80
2023-12-17T17:58:48.413Z,132.38
2023-12-17T18:01:18.556Z,133.98
2023-12-17T18:03:45.328Z,121.63
2023-12-17T18:06:12.054Z,114.25
2023-12-17T18:08:38.708Z,84.85
2023-12-17T18:11:05.418Z,105.05
2023-12-17T18:13:35.309Z,100.28
2023-12-17T18:16:02.168Z,93.38
2023-12-17T18:18:28.985Z,87.65
2023-12-17T18:20:55.697Z,80.47
2023-12-17T18:23:22.695Z,76.50
2023-12-17T18:25:49.984Z,54.87
2023-12-17T18:28:16.684Z,80.82
2023-12-17T18:30:43.501Z,62.80
2023-12-17T18:33:10.404Z,71.55
2023-12-17T18:35:37.157Z,70.47
2023-12-17T18:38:03.896Z,71.13
2023-12-17T18:40:30.582Z,74.03
2023-12-17T18:42:57.244Z,84.63
2023-12-17T18:45:23.958Z,60.47
2023-12-17T18:47:50.703Z,63.28
2023-12-17T18:50:18.152Z,99.82
2023-12-17T18:52:44.884Z,97.22
2023-12-17T18:55:11.582Z,97.85
2023-12-17T18:57:38.320Z,104.03
2023-12-17T19:00:06.559Z,69.72
2023-12-17T19:02:33.511Z,63.70
2023-12-17T19:05:00.273Z,92.40
2023-12-17T19:07:27.060Z,109.88
2023-12-17T19:09:53.684Z,104.40
2023-12-17T19:12:21.044Z,107.20
2023-12-17T19:14:49.929Z,107.78
2023-12-17T19:17:16.946Z,94.15
2023-12-17T19:22:11.709Z,65.47
2023-12-17T19:24:38.837Z,67.93
2023-12-17T19:27:05.691Z,60.78
2023-12-17T19:29:36.261Z,85.18
2023-12-17T19:32:03.715Z,82.80
2023-12-17T19:34:40.559Z,89.63
2023-12-17T19:37:07.742Z,77.93
2023-12-17T19:39:37.167Z,78.97
2023-12-17T19:42:04.045Z,63.28
2023-12-17T19:44:30.797Z,50.47
2023-12-17T19:46:58.332Z,45.25
2023-12-17T19:49:25.132Z,51.65
2023-12-17T19:51:51.858Z,45.35
2023-12-17T19:54:18.578Z,45.20
2023-12-17T19:56:45.316Z,52.38
2023-12-17T19:59:12.001Z,49.95
2023-12-17T20:01:38.766Z,67.55
2023-12-17T20:04:05.475Z,88.50
2023-12-17T20:06:32.293Z,121.50
2023-12-17T20:08:59.260Z,132.63
2023-12-17T20:11:26.561Z,107.37
2023-12-17T20:13:56.299Z,119.78
2023-12-17T20:16:23.120Z,86.68
2023-12-17T20:18:50.208Z,87.97
2023-12-17T20:21:17.825Z,78.90
2023-12-17T20:23:46.151Z,78.95
2023-12-17T20:26:12.905Z,77.22
2023-12-17T20:28:39.739Z,69.03
2023-12-17T20:31:09.924Z,83.15
2023-12-17T20:33:37.465Z,75.82
2023-12-17T20:36:10.240Z,74.10
2023-12-17T20:38:37.083Z,93.82
2023-12-17T20:41:04.884Z,92.85
2023-12-17T20:43:33.670Z,96.43
2023-12-17T20:46:00.389Z,96.57
2023-12-17T20:48:27.581Z,94.07
2023-12-17T20:50:54.499Z,86.05
2023-12-17T20:53:21.356Z,72.25
2023-12-17T20:55:48.119Z,73.28
2023-12-17T20:58:16.940Z,103.18
2023-12-17T21:00:44.333Z,78.53
2023-12-17T21:03:11.235Z,53.00
2023-12-17T21:05:38.094Z,43.53
2023-12-17T21:08:05.039Z,42.70
2023-12-17T21:10:31.797Z,55.37
2023-12-17T21:12:58.639Z,31.70
2023-12-17T21:15:25.929Z,44.92
2023-12-17T21:17:52.813Z,30.42
2023-12-17T21:20:19.696Z,29.53
2023-12-17T21:22:46.491Z,36.03
2023-12-17T21:25:14.568Z,38.55
2023-12-17T21:27:41.757Z,38.30
2023-12-17T21:30:09.088Z,34.53
2023-12-17T21:32:36.434Z,39.28
2023-12-17T21:35:03.653Z,44.28
2023-12-17T21:37:30.507Z,42.58
2023-12-17T21:39:58.683Z,49.92
2023-12-17T21:42:25.463Z,46.40
2023-12-17T21:44:52.285Z,52.20
2023-12-17T21:47:19.099Z,62.70
2023-12-17T21:49:46.153Z,70.80
2023-12-17T21:52:24.903Z,56.97
2023-12-17T21:54:59.727Z,53.22
2023-12-17T21:57:39.572Z,70.20
2023-12-17T22:00:13.137Z,71.45
2023-12-17T22:02:40.075Z,65.75
2023-12-17T22:05:06.902Z,62.35
2023-12-17T22:07:33.749Z,60.20
2023-12-17T22:10:00.493Z,60.75
2023-12-17T22:12:27.494Z,54.72
2023-12-17T22:14:54.342Z,53.33
2023-12-17T22:17:21.224Z,48.03
2023-12-17T22:19:48.087Z,59.45
2023-12-17T22:22:14.896Z,61.65
2023-12-17T22:24:42.451Z,44.45
2023-12-17T22:27:09.330Z,45.42
2023-12-17T22:29:36.808Z,46.70
2023-12-17T22:32:03.774Z,68.35
2023-12-17T22:34:31.882Z,50.83
2023-12-17T22:36:58.740Z,56.35
2023-12-17T22:39:25.603Z,49.45
2023-12-17T22:41:52.821Z,47.85
2023-12-17T22:44:21.080Z,41.13
2023-12-17T22:46:47.959Z,29.25
2023-12-17T22:49:14.834Z,29.98
2023-12-17T22:51:41.752Z,35.50
2023-12-17T22:54:08.655Z,50.50
2023-12-17T22:56:38.762Z,60.97
2023-12-17T22:59:05.837Z,36.05
2023-12-17T23:01:32.891Z,40.00
2023-12-17T23:04:00.082Z,41.72
2023-12-17T23:06:27.200Z,37.63
2023-12-17T23:08:54.021Z,40.23
2023-12-17T23:11:22.738Z,38.08
2023-12-17T23:13:51.083Z,36.90
2023-12-17T23:16:18.013Z,45.35
2023-12-17T23:18:44.899Z,50.70
2023-12-17T23:21:14.913Z,38.50
2023-12-17T23:23:41.812Z,49.80
2023-12-17T23:26:08.765Z,51.60
2023-12-17T23:28:35.741Z,48.70
2023-12-17T23:31:02.583Z,48.10
2023-12-17T23:33:30.180Z,47.30
2023-12-17T23:35:57.227Z,38.78
2023-12-17T23:38:23.989Z,38.63
2023-12-17T23:40:50.837Z,35.33
2023-12-17T23:43:17.501Z,39.85
2023-12-17T23:45:44.269Z,32.47
2023-12-17T23:48:12.740Z,37.17
2023-12-17T23:50:39.723Z,41.33
2023-12-17T23:53:06.538Z,49.17
2023-12-17T23:55:33.325Z,42.40
2023-12-17T23:58:00.100Z,63.28
